sensor_id;sensor_type;location;lat;lon;timestamp;P1;durP1;ratioP1;P2;durP2;ratioP2
33738;SDS011;20063;51.730;11.110;2023-11-19T00:00:50;1.70;;;1.60;;
33738;SDS011;20063;51.730;11.110;2023-11-19T00:03:16;1.90;;;1.80;;
33738;SDS011;20063;51.730;11.110;2023-11-19T00:05:42;2.80;;;2.00;;
33738;SDS011;20063;51.730;11.110;2023-11-19T00:08:09;1.85;;;1.75;;
33738;SDS011;20063;51.730;11.110;2023-11-19T00:10:35;1.70;;;1.60;;
33738;SDS011;20063;51.730;11.110;2023-11-19T00:13:00;1.27;;;1.23;;
33738;SDS011;20063;51.730;11.110;2023-11-19T00:15:27;2.00;;;1.40;;
33738;SDS011;20063;51.730;11.110;2023-11-19T00:17:53;1.35;;;1.30;;
33738;SDS011;20063;51.730;11.110;2023-11-19T00:20:19;1.40;;;1.30;;
33738;SDS011;20063;51.730;11.110;2023-11-19T00:22:47;1.20;;;1.20;;
33738;SDS011;20063;51.730;11.110;2023-11-19T00:25:19;1.30;;;1.20;;
33738;SDS011;20063;51.730;11.110;2023-11-19T00:27:46;1.20;;;1.20;;
33738;SDS011;20063;51.730;11.110;2023-11-19T00:30:12;1.23;;;1.13;;
33738;SDS011;20063;51.730;11.110;2023-11-19T00:32:39;1.08;;;1.08;;
33738;SDS011;20063;51.730;11.110;2023-11-19T00:35:05;1.80;;;1.27;;
33738;SDS011;20063;51.730;11.110;2023-11-19T00:37:32;1.65;;;1.20;;
33738;SDS011;20063;51.730;11.110;2023-11-19T00:39:58;1.33;;;1.23;;
33738;SDS011;20063;51.730;11.110;2023-11-19T00:42:23;1.35;;;1.25;;
33738;SDS011;20063;51.730;11.110;2023-11-19T00:44:52;1.75;;;1.27;;
33738;SDS011;20063;51.730;11.110;2023-11-19T00:47:18;1.17;;;1.17;;
33738;SDS011;20063;51.730;11.110;2023-11-19T00:49:47;1.38;;;1.30;;
33738;SDS011;20063;51.730;11.110;2023-11-19T00:52:16;1.48;;;1.10;;
33738;SDS011;20063;51.730;11.110;2023-11-19T00:54:42;1.10;;;0.85;;
33738;SDS011;20063;51.730;11.110;2023-11-19T00:57:09;1.30;;;1.00;;
33738;SDS011;20063;51.730;11.110;2023-11-19T00:59:35;1.10;;;1.08;;
33738;SDS011;20063;51.730;11.110;2023-11-19T01:02:00;1.17;;;1.13;;
33738;SDS011;20063;51.730;11.110;2023-11-19T01:04:29;1.20;;;1.20;;
33738;SDS011;20063;51.730;11.110;2023-11-19T01:06:54;1.30;;;1.20;;
33738;SDS011;20063;51.730;11.110;2023-11-19T01:09:20;2.22;;;1.48;;
33738;SDS011;20063;51.730;11.110;2023-11-19T01:11:46;1.25;;;1.15;;
33738;SDS011;20063;51.730;11.110;2023-11-19T01:14:11;1.23;;;1.20;;
33738;SDS011;20063;51.730;11.110;2023-11-19T01:16:37;0.90;;;0.90;;
33738;SDS011;20063;51.730;11.110;2023-11-19T01:19:04;3.05;;;1.50;;
33738;SDS011;20063;51.730;11.110;2023-11-19T01:21:30;1.02;;;1.02;;
33738;SDS011;20063;51.730;11.110;2023-11-19T01:23:57;1.10;;;1.10;;
33738;SDS011;20063;51.730;11.110;2023-11-19T01:26:24;1.05;;;1.05;;
33738;SDS011;20063;51.730;11.110;2023-11-19T01:28:50;1.60;;;1.48;;
33738;SDS011;20063;51.730;11.110;2023-11-19T01:31:17;1.20;;;1.20;;
33738;SDS011;20063;51.730;11.110;2023-11-19T01:33:43;1.38;;;1.27;;
33738;SDS011;20063;51.730;11.110;2023-11-19T01:36:09;2.80;;;1.50;;
33738;SDS011;20063;51.730;11.110;2023-11-19T01:38:37;1.10;;;1.00;;
33738;SDS011;20063;51.730;11.110;2023-11-19T01:41:03;1.48;;;0.85;;
33738;SDS011;20063;51.730;11.110;2023-11-19T01:43:36;1.10;;;1.10;;
33738;SDS011;20063;51.730;11.110;2023-11-19T01:46:02;1.10;;;1.10;;
33738;SDS011;20063;51.730;11.110;2023-11-19T01:48:30;1.50;;;1.40;;
33738;SDS011;20063;51.730;11.110;2023-11-19T01:50:57;1.90;;;1.80;;
33738;SDS011;20063;51.730;11.110;2023-11-19T01:53:24;3.90;;;2.78;;
33738;SDS011;20063;51.730;11.110;2023-11-19T01:55:50;1.50;;;1.40;;
33738;SDS011;20063;51.730;11.110;2023-11-19T01:58:17;2.72;;;1.30;;
33738;SDS011;20063;51.730;11.110;2023-11-19T02:00:47;1.50;;;1.40;;
33738;SDS011;20063;51.730;11.110;2023-11-19T02:03:14;1.58;;;1.05;;
33738;SDS011;20063;51.730;11.110;2023-11-19T02:05:41;1.00;;;1.00;;
33738;SDS011;20063;51.730;11.110;2023-11-19T02:08:06;1.33;;;1.20;;
33738;SDS011;20063;51.730;11.110;2023-11-19T02:10:33;1.00;;;1.00;;
33738;SDS011;20063;51.730;11.110;2023-11-19T02:12:58;1.05;;;1.05;;
33738;SDS011;20063;51.730;11.110;2023-11-19T02:15:25;1.10;;;1.10;;
33738;SDS011;20063;51.730;11.110;2023-11-19T02:17:51;1.30;;;1.20;;
33738;SDS011;20063;51.730;11.110;2023-11-19T02:20:17;1.30;;;1.20;;
33738;SDS011;20063;51.730;11.110;2023-11-19T02:22:45;1.10;;;1.00;;
33738;SDS011;20063;51.730;11.110;2023-11-19T02:25:14;1.00;;;1.00;;
33738;SDS011;20063;51.730;11.110;2023-11-19T02:30:24;1.00;;;1.00;;
33738;SDS011;20063;51.730;11.110;2023-11-19T02:32:57;3.22;;;1.20;;
33738;SDS011;20063;51.730;11.110;2023-11-19T02:35:30;0.80;;;0.80;;
33738;SDS011;20063;51.730;11.110;2023-11-19T02:37:58;0.80;;;0.80;;
33738;SDS011;20063;51.730;11.110;2023-11-19T02:40:29;1.00;;;1.00;;
33738;SDS011;20063;51.730;11.110;2023-11-19T02:42:55;0.90;;;0.90;;
33738;SDS011;20063;51.730;11.110;2023-11-19T02:45:22;1.30;;;0.90;;
33738;SDS011;20063;51.730;11.110;2023-11-19T02:47:48;3.20;;;0.82;;
33738;SDS011;20063;51.730;11.110;2023-11-19T02:50:14;1.10;;;1.00;;
33738;SDS011;20063;51.730;11.110;2023-11-19T02:52:43;0.80;;;0.80;;
33738;SDS011;20063;51.730;11.110;2023-11-19T02:55:11;0.80;;;0.80;;
33738;SDS011;20063;51.730;11.110;2023-11-19T02:57:40;0.80;;;0.80;;
33738;SDS011;20063;51.730;11.110;2023-11-19T03:00:16;0.80;;;0.80;;
33738;SDS011;20063;51.730;11.110;2023-11-19T03:02:49;0.98;;;0.82;;
33738;SDS011;20063;51.730;11.110;2023-11-19T03:05:26;0.70;;;0.70;;
33738;SDS011;20063;51.730;11.110;2023-11-19T03:07:55;1.45;;;0.93;;
33738;SDS011;20063;51.730;11.110;2023-11-19T03:10:21;0.73;;;0.73;;
33738;SDS011;20063;51.730;11.110;2023-11-19T03:12:47;0.77;;;0.77;;
33738;SDS011;20063;51.730;11.110;2023-11-19T03:15:12;0.73;;;0.73;;
33738;SDS011;20063;51.730;11.110;2023-11-19T03:17:39;0.82;;;0.80;;
33738;SDS011;20063;51.730;11.110;2023-11-19T03:20:06;0.80;;;0.80;;
33738;SDS011;20063;51.730;11.110;2023-11-19T03:22:39;0.77;;;0.77;;
33738;SDS011;20063;51.730;11.110;2023-11-19T03:25:07;0.77;;;0.70;;
33738;SDS011;20063;51.730;11.110;2023-11-19T03:27:36;1.65;;;0.70;;
33738;SDS011;20063;51.730;11.110;2023-11-19T03:30:04;0.70;;;0.70;;
33738;SDS011;20063;51.730;11.110;2023-11-19T03:32:34;0.65;;;0.65;;
33738;SDS011;20063;51.730;11.110;2023-11-19T03:35:00;0.47;;;0.47;;
33738;SDS011;20063;51.730;11.110;2023-11-19T03:37:27;0.73;;;0.73;;
33738;SDS011;20063;51.730;11.110;2023-11-19T03:39:56;0.65;;;0.65;;
33738;SDS011;20063;51.730;11.110;2023-11-19T03:42:24;0.60;;;0.60;;
33738;SDS011;20063;51.730;11.110;2023-11-19T03:44:53;0.63;;;0.63;;
33738;SDS011;20063;51.730;11.110;2023-11-19T03:47:19;0.60;;;0.60;;
33738;SDS011;20063;51.730;11.110;2023-11-19T03:49:48;0.73;;;0.73;;
33738;SDS011;20063;51.730;11.110;2023-11-19T03:52:14;0.52;;;0.52;;
33738;SDS011;20063;51.730;11.110;2023-11-19T03:54:40;0.55;;;0.55;;
33738;SDS011;20063;51.730;11.110;2023-11-19T03:57:06;0.60;;;0.60;;
33738;SDS011;20063;51.730;11.110;2023-11-19T03:59:32;0.73;;;0.73;;
33738;SDS011;20063;51.730;11.110;2023-11-19T04:01:59;0.80;;;0.80;;
33738;SDS011;20063;51.730;11.110;2023-11-19T04:04:26;0.88;;;0.88;;
33738;SDS011;20063;51.730;11.110;2023-11-19T04:06:52;0.68;;;0.65;;
33738;SDS011;20063;51.730;11.110;2023-11-19T04:09:18;1.02;;;1.02;;
33738;SDS011;20063;51.730;11.110;2023-11-19T04:11:44;0.90;;;0.90;;
33738;SDS011;20063;51.730;11.110;2023-11-19T04:14:12;0.80;;;0.80;;
33738;SDS011;20063;51.730;11.110;2023-11-19T04:16:38;0.82;;;0.73;;
33738;SDS011;20063;51.730;11.110;2023-11-19T04:19:04;1.38;;;0.90;;
33738;SDS011;20063;51.730;11.110;2023-11-19T04:21:30;2.47;;;0.80;;
33738;SDS011;20063;51.730;11.110;2023-11-19T04:23:55;0.73;;;0.73;;
33738;SDS011;20063;51.730;11.110;2023-11-19T04:26:21;0.70;;;0.70;;
33738;SDS011;20063;51.730;11.110;2023-11-19T04:28:47;0.90;;;0.80;;
33738;SDS011;20063;51.730;11.110;2023-11-19T04:31:14;2.15;;;0.80;;
33738;SDS011;20063;51.730;11.110;2023-11-19T04:33:43;0.82;;;0.82;;
33738;SDS011;20063;51.730;11.110;2023-11-19T04:36:09;0.70;;;0.70;;
33738;SDS011;20063;51.730;11.110;2023-11-19T04:38:35;0.82;;;0.80;;
33738;SDS011;20063;51.730;11.110;2023-11-19T04:41:03;1.15;;;1.05;;
33738;SDS011;20063;51.730;11.110;2023-11-19T04:43:30;0.88;;;0.88;;
33738;SDS011;20063;51.730;11.110;2023-11-19T04:45:56;2.30;;;0.90;;
33738;SDS011;20063;51.730;11.110;2023-11-19T04:48:22;2.47;;;1.00;;
33738;SDS011;20063;51.730;11.110;2023-11-19T04:50:49;1.13;;;1.00;;
33738;SDS011;20063;51.730;11.110;2023-11-19T04:53:21;4.25;;;1.05;;
33738;SDS011;20063;51.730;11.110;2023-11-19T04:55:46;0.60;;;0.60;;
33738;SDS011;20063;51.730;11.110;2023-11-19T04:58:12;0.80;;;0.80;;
33738;SDS011;20063;51.730;11.110;2023-11-19T05:00:38;0.60;;;0.60;;
33738;SDS011;20063;51.730;11.110;2023-11-19T05:03:03;0.70;;;0.70;;
33738;SDS011;20063;51.730;11.110;2023-11-19T05:05:29;1.27;;;0.70;;
33738;SDS011;20063;51.730;11.110;2023-11-19T05:07:55;0.60;;;0.60;;
33738;SDS011;20063;51.730;11.110;2023-11-19T05:10:21;1.05;;;0.63;;
33738;SDS011;20063;51.730;11.110;2023-11-19T05:12:46;0.50;;;0.50;;
33738;SDS011;20063;51.730;11.110;2023-11-19T05:15:12;0.60;;;0.60;;
33738;SDS011;20063;51.730;11.110;2023-11-19T05:17:40;1.02;;;1.02;;
33738;SDS011;20063;51.730;11.110;2023-11-19T05:20:11;0.60;;;0.60;;
33738;SDS011;20063;51.730;11.110;2023-11-19T05:22:40;0.55;;;0.55;;
33738;SDS011;20063;51.730;11.110;2023-11-19T05:25:06;4.85;;;0.50;;
33738;SDS011;20063;51.730;11.110;2023-11-19T05:27:35;0.40;;;0.40;;
33738;SDS011;20063;51.730;11.110;2023-11-19T05:30:01;0.32;;;0.32;;
33738;SDS011;20063;51.730;11.110;2023-11-19T05:32:27;0.45;;;0.45;;
33738;SDS011;20063;51.730;11.110;2023-11-19T05:34:53;1.73;;;0.95;;
33738;SDS011;20063;51.730;11.110;2023-11-19T05:37:19;1.85;;;0.60;;
33738;SDS011;20063;51.730;11.110;2023-11-19T05:39:45;2.65;;;0.63;;
33738;SDS011;20063;51.730;11.110;2023-11-19T05:42:10;0.52;;;0.52;;
33738;SDS011;20063;51.730;11.110;2023-11-19T05:44:36;0.60;;;0.60;;
33738;SDS011;20063;51.730;11.110;2023-11-19T05:47:02;0.60;;;0.60;;
33738;SDS011;20063;51.730;11.110;2023-11-19T05:49:29;3.30;;;1.15;;
33738;SDS011;20063;51.730;11.110;2023-11-19T05:51:55;0.75;;;0.75;;
33738;SDS011;20063;51.730;11.110;2023-11-19T05:54:21;1.10;;;0.90;;
33738;SDS011;20063;51.730;11.110;2023-11-19T05:56:47;1.27;;;0.80;;
33738;SDS011;20063;51.730;11.110;2023-11-19T05:59:14;0.82;;;0.73;;
33738;SDS011;20063;51.730;11.110;2023-11-19T06:01:45;7.55;;;1.40;;
33738;SDS011;20063;51.730;11.110;2023-11-19T06:04:15;1.73;;;1.00;;
33738;SDS011;20063;51.730;11.110;2023-11-19T06:06:41;3.53;;;0.82;;
33738;SDS011;20063;51.730;11.110;2023-11-19T06:09:07;3.83;;;0.93;;
33738;SDS011;20063;51.730;11.110;2023-11-19T06:11:34;3.45;;;1.45;;
33738;SDS011;20063;51.730;11.110;2023-11-19T06:14:01;5.82;;;1.50;;
33738;SDS011;20063;51.730;11.110;2023-11-19T06:16:27;2.80;;;1.10;;
33738;SDS011;20063;51.730;11.110;2023-11-19T06:18:52;5.10;;;1.20;;
33738;SDS011;20063;51.730;11.110;2023-11-19T06:21:18;2.92;;;1.10;;
33738;SDS011;20063;51.730;11.110;2023-11-19T06:23:44;7.57;;;1.40;;
33738;SDS011;20063;51.730;11.110;2023-11-19T06:26:10;7.72;;;1.15;;
33738;SDS011;20063;51.730;11.110;2023-11-19T06:28:35;5.15;;;1.40;;
33738;SDS011;20063;51.730;11.110;2023-11-19T06:31:01;3.40;;;1.20;;
33738;SDS011;20063;51.730;11.110;2023-11-19T06:33:28;5.20;;;1.20;;
33738;SDS011;20063;51.730;11.110;2023-11-19T06:35:55;5.15;;;1.45;;
33738;SDS011;20063;51.730;11.110;2023-11-19T06:38:20;6.78;;;1.63;;
33738;SDS011;20063;51.730;11.110;2023-11-19T06:40:46;3.10;;;1.10;;
33738;SDS011;20063;51.730;11.110;2023-11-19T06:43:12;6.82;;;1.55;;
33738;SDS011;20063;51.730;11.110;2023-11-19T06:45:38;4.22;;;1.15;;
33738;SDS011;20063;51.730;11.110;2023-11-19T06:48:04;3.00;;;1.38;;
33738;SDS011;20063;51.730;11.110;2023-11-19T06:50:30;4.03;;;1.38;;
33738;SDS011;20063;51.730;11.110;2023-11-19T06:52:57;8.25;;;1.67;;
33738;SDS011;20063;51.730;11.110;2023-11-19T06:55:22;2.60;;;1.55;;
33738;SDS011;20063;51.730;11.110;2023-11-19T06:57:48;6.90;;;1.58;;
33738;SDS011;20063;51.730;11.110;2023-11-19T07:00:13;3.25;;;1.27;;
33738;SDS011;20063;51.730;11.110;2023-11-19T07:02:39;4.57;;;1.77;;
33738;SDS011;20063;51.730;11.110;2023-11-19T07:05:05;3.42;;;1.33;;
33738;SDS011;20063;51.730;11.110;2023-11-19T07:07:31;5.85;;;1.35;;
33738;SDS011;20063;51.730;11.110;2023-11-19T07:10:00;9.40;;;1.60;;
33738;SDS011;20063;51.730;11.110;2023-11-19T07:12:27;5.28;;;1.13;;
33738;SDS011;20063;51.730;11.110;2023-11-19T07:14:53;9.93;;;1.48;;
33738;SDS011;20063;51.730;11.110;2023-11-19T07:17:20;6.70;;;1.33;;
33738;SDS011;20063;51.730;11.110;2023-11-19T07:19:46;4.40;;;0.95;;
33738;SDS011;20063;51.730;11.110;2023-11-19T07:22:12;7.57;;;1.50;;
33738;SDS011;20063;51.730;11.110;2023-11-19T07:24:40;19.58;;;7.55;;
33738;SDS011;20063;51.730;11.110;2023-11-19T07:27:06;13.30;;;3.88;;
33738;SDS011;20063;51.730;11.110;2023-11-19T07:29:34;36.53;;;18.00;;
33738;SDS011;20063;51.730;11.110;2023-11-19T07:32:00;17.65;;;8.80;;
33738;SDS011;20063;51.730;11.110;2023-11-19T07:34:30;9.82;;;2.22;;
33738;SDS011;20063;51.730;11.110;2023-11-19T07:36:56;17.60;;;3.47;;
33738;SDS011;20063;51.730;11.110;2023-11-19T07:39:27;19.48;;;2.80;;
33738;SDS011;20063;51.730;11.110;2023-11-19T07:41:55;13.05;;;3.05;;
33738;SDS011;20063;51.730;11.110;2023-11-19T07:44:21;20.08;;;3.08;;
33738;SDS011;20063;51.730;11.110;2023-11-19T07:46:47;19.30;;;3.22;;
33738;SDS011;20063;51.730;11.110;2023-11-19T07:49:13;18.10;;;2.28;;
33738;SDS011;20063;51.730;11.110;2023-11-19T07:51:40;10.05;;;2.67;;
33738;SDS011;20063;51.730;11.110;2023-11-19T07:54:06;21.25;;;3.53;;
33738;SDS011;20063;51.730;11.110;2023-11-19T07:56:33;23.77;;;3.30;;
33738;SDS011;20063;51.730;11.110;2023-11-19T07:59:02;19.90;;;4.53;;
33738;SDS011;20063;51.730;11.110;2023-11-19T08:01:28;17.65;;;3.65;;
33738;SDS011;20063;51.730;11.110;2023-11-19T08:03:53;26.50;;;5.00;;
33738;SDS011;20063;51.730;11.110;2023-11-19T08:06:19;24.30;;;5.22;;
33738;SDS011;20063;51.730;11.110;2023-11-19T08:08:45;20.60;;;4.03;;
33738;SDS011;20063;51.730;11.110;2023-11-19T08:11:12;33.53;;;4.35;;
33738;SDS011;20063;51.730;11.110;2023-11-19T08:13:38;32.95;;;4.55;;
33738;SDS011;20063;51.730;11.110;2023-11-19T08:16:04;19.30;;;3.60;;
33738;SDS011;20063;51.730;11.110;2023-11-19T08:18:30;29.50;;;4.65;;
33738;SDS011;20063;51.730;11.110;2023-11-19T08:20:56;28.77;;;5.80;;
33738;SDS011;20063;51.730;11.110;2023-11-19T08:23:23;19.40;;;4.38;;
33738;SDS011;20063;51.730;11.110;2023-11-19T08:25:50;25.02;;;4.57;;
33738;SDS011;20063;51.730;11.110;2023-11-19T08:28:16;27.60;;;5.30;;
33738;SDS011;20063;51.730;11.110;2023-11-19T08:30:42;19.05;;;3.78;;
33738;SDS011;20063;51.730;11.110;2023-11-19T08:33:09;28.75;;;7.63;;
33738;SDS011;20063;51.730;11.110;2023-11-19T08:35:35;18.73;;;3.50;;
33738;SDS011;20063;51.730;11.110;2023-11-19T08:38:00;19.75;;;3.95;;
33738;SDS011;20063;51.730;11.110;2023-11-19T08:40:26;23.20;;;3.80;;
33738;SDS011;20063;51.730;11.110;2023-11-19T08:42:53;22.10;;;4.32;;
33738;SDS011;20063;51.730;11.110;2023-11-19T08:45:21;22.02;;;4.07;;
33738;SDS011;20063;51.730;11.110;2023-11-19T08:47:47;18.13;;;4.10;;
33738;SDS011;20063;51.730;11.110;2023-11-19T08:50:13;33.58;;;4.25;;
33738;SDS011;20063;51.730;11.110;2023-11-19T08:52:38;30.65;;;4.25;;
33738;SDS011;20063;51.730;11.110;2023-11-19T08:55:04;28.65;;;4.32;;
33738;SDS011;20063;51.730;11.110;2023-11-19T08:57:34;21.05;;;4.07;;
33738;SDS011;20063;51.730;11.110;2023-11-19T09:00:00;18.80;;;4.13;;
33738;SDS011;20063;51.730;11.110;2023-11-19T09:02:27;20.60;;;3.70;;
33738;SDS011;20063;51.730;11.110;2023-11-19T09:04:54;18.52;;;3.88;;
33738;SDS011;20063;51.730;11.110;2023-11-19T09:07:20;24.33;;;3.60;;
33738;SDS011;20063;51.730;11.110;2023-11-19T09:09:46;17.17;;;3.65;;
33738;SDS011;20063;51.730;11.110;2023-11-19T09:12:12;22.55;;;4.13;;
33738;SDS011;20063;51.730;11.110;2023-11-19T09:14:38;24.10;;;4.43;;
33738;SDS011;20063;51.730;11.110;2023-11-19T09:17:04;26.13;;;4.43;;
33738;SDS011;20063;51.730;11.110;2023-11-19T09:19:31;25.52;;;4.50;;
33738;SDS011;20063;51.730;11.110;2023-11-19T09:21:57;26.30;;;3.88;;
33738;SDS011;20063;51.730;11.110;2023-11-19T09:24:23;26.98;;;4.50;;
33738;SDS011;20063;51.730;11.110;2023-11-19T09:26:48;23.88;;;3.80;;
33738;SDS011;20063;51.730;11.110;2023-11-19T09:29:14;31.35;;;5.47;;
33738;SDS011;20063;51.730;11.110;2023-11-19T09:31:40;25.08;;;5.00;;
33738;SDS011;20063;51.730;11.110;2023-11-19T09:34:06;25.92;;;5.18;;
33738;SDS011;20063;51.730;11.110;2023-11-19T09:36:31;34.95;;;5.40;;
33738;SDS011;20063;51.730;11.110;2023-11-19T09:38:57;29.35;;;4.53;;
33738;SDS011;20063;51.730;11.110;2023-11-19T09:41:25;24.20;;;4.28;;
33738;SDS011;20063;51.730;11.110;2023-11-19T09:43:53;33.17;;;5.15;;
33738;SDS011;20063;51.730;11.110;2023-11-19T09:46:18;26.95;;;5.93;;
33738;SDS011;20063;51.730;11.110;2023-11-19T09:48:45;34.97;;;4.90;;
33738;SDS011;20063;51.730;11.110;2023-11-19T09:51:13;24.77;;;5.55;;
33738;SDS011;20063;51.730;11.110;2023-11-19T09:53:39;37.10;;;4.80;;
33738;SDS011;20063;51.730;11.110;2023-11-19T09:56:05;21.10;;;4.82;;
33738;SDS011;20063;51.730;11.110;2023-11-19T09:58:33;24.60;;;4.28;;
33738;SDS011;20063;51.730;11.110;2023-11-19T10:00:59;18.05;;;3.33;;
33738;SDS011;20063;51.730;11.110;2023-11-19T10:03:29;25.00;;;4.70;;
33738;SDS011;20063;51.730;11.110;2023-11-19T10:06:03;27.25;;;4.47;;
33738;SDS011;20063;51.730;11.110;2023-11-19T10:08:31;25.98;;;4.57;;
33738;SDS011;20063;51.730;11.110;2023-11-19T10:10:58;29.13;;;4.32;;
33738;SDS011;20063;51.730;11.110;2023-11-19T10:13:27;25.88;;;4.18;;
33738;SDS011;20063;51.730;11.110;2023-11-19T10:15:53;26.23;;;4.85;;
33738;SDS011;20063;51.730;11.110;2023-11-19T10:18:25;26.15;;;4.75;;
33738;SDS011;20063;51.730;11.110;2023-11-19T10:20:51;36.03;;;7.20;;
33738;SDS011;20063;51.730;11.110;2023-11-19T10:23:17;29.30;;;5.32;;
33738;SDS011;20063;51.730;11.110;2023-11-19T10:25:43;36.05;;;6.22;;
33738;SDS011;20063;51.730;11.110;2023-11-19T10:28:10;45.45;;;7.70;;
33738;SDS011;20063;51.730;11.110;2023-11-19T10:30:35;31.23;;;6.05;;
33738;SDS011;20063;51.730;11.110;2023-11-19T10:35:31;35.50;;;5.35;;
33738;SDS011;20063;51.730;11.110;2023-11-19T10:38:21;35.53;;;5.57;;
33738;SDS011;20063;51.730;11.110;2023-11-19T10:40:50;35.22;;;6.57;;
33738;SDS011;20063;51.730;11.110;2023-11-19T10:43:16;43.25;;;11.15;;
33738;SDS011;20063;51.730;11.110;2023-11-19T10:45:42;34.17;;;7.47;;
33738;SDS011;20063;51.730;11.110;2023-11-19T10:48:08;38.10;;;6.65;;
33738;SDS011;20063;51.730;11.110;2023-11-19T10:50:35;40.33;;;5.53;;
33738;SDS011;20063;51.730;11.110;2023-11-19T10:53:02;46.90;;;7.55;;
33738;SDS011;20063;51.730;11.110;2023-11-19T10:55:30;37.10;;;6.78;;
33738;SDS011;20063;51.730;11.110;2023-11-19T10:57:58;24.02;;;5.10;;
33738;SDS011;20063;51.730;11.110;2023-11-19T11:00:26;42.78;;;6.00;;
33738;SDS011;20063;51.730;11.110;2023-11-19T11:02:55;39.60;;;7.72;;
33738;SDS011;20063;51.730;11.110;2023-11-19T11:05:25;42.80;;;6.93;;
33738;SDS011;20063;51.730;11.110;2023-11-19T11:07:52;35.40;;;6.38;;
33738;SDS011;20063;51.730;11.110;2023-11-19T11:10:21;30.73;;;5.22;;
33738;SDS011;20063;51.730;11.110;2023-11-19T11:12:51;37.50;;;6.07;;
33738;SDS011;20063;51.730;11.110;2023-11-19T11:15:24;40.38;;;7.10;;
33738;SDS011;20063;51.730;11.110;2023-11-19T11:17:54;42.55;;;5.95;;
33738;SDS011;20063;51.730;11.110;2023-11-19T11:20:31;30.70;;;5.27;;
33738;SDS011;20063;51.730;11.110;2023-11-19T11:26:00;37.35;;;6.25;;
33738;SDS011;20063;51.730;11.110;2023-11-19T11:28:58;38.20;;;6.30;;
33738;SDS011;20063;51.730;11.110;2023-11-19T11:37:26;31.98;;;5.63;;
33738;SDS011;20063;51.730;11.110;2023-11-19T11:40:03;28.83;;;3.85;;
33738;SDS011;20063;51.730;11.110;2023-11-19T11:42:35;20.40;;;4.00;;
33738;SDS011;20063;51.730;11.110;2023-11-19T11:45:03;24.40;;;4.20;;
33738;SDS011;20063;51.730;11.110;2023-11-19T11:50:10;18.35;;;3.67;;
33738;SDS011;20063;51.730;11.110;2023-11-19T11:55:27;16.65;;;3.60;;
33738;SDS011;20063;51.730;11.110;2023-11-19T11:58:20;19.10;;;3.80;;
33738;SDS011;20063;51.730;11.110;2023-11-19T12:00:46;22.63;;;3.90;;
33738;SDS011;20063;51.730;11.110;2023-11-19T12:03:13;20.02;;;3.35;;
33738;SDS011;20063;51.730;11.110;2023-11-19T12:05:44;26.80;;;4.25;;
33738;SDS011;20063;51.730;11.110;2023-11-19T12:08:14;16.33;;;3.15;;
33738;SDS011;20063;51.730;11.110;2023-11-19T12:10:49;31.10;;;4.50;;
33738;SDS011;20063;51.730;11.110;2023-11-19T12:13:16;25.95;;;4.32;;
33738;SDS011;20063;51.730;11.110;2023-11-19T12:18:28;29.80;;;4.43;;
33738;SDS011;20063;51.730;11.110;2023-11-19T12:20:55;34.40;;;5.53;;
33738;SDS011;20063;51.730;11.110;2023-11-19T12:23:22;42.47;;;5.95;;
33738;SDS011;20063;51.730;11.110;2023-11-19T12:25:48;34.63;;;5.60;;
33738;SDS011;20063;51.730;11.110;2023-11-19T12:28:14;25.88;;;6.38;;
33738;SDS011;20063;51.730;11.110;2023-11-19T12:30:45;40.08;;;6.93;;
33738;SDS011;20063;51.730;11.110;2023-11-19T12:33:12;37.00;;;6.60;;
33738;SDS011;20063;51.730;11.110;2023-11-19T12:35:47;40.45;;;5.97;;
33738;SDS011;20063;51.730;11.110;2023-11-19T12:38:20;33.38;;;5.93;;
33738;SDS011;20063;51.730;11.110;2023-11-19T12:40:46;35.63;;;4.90;;
33738;SDS011;20063;51.730;11.110;2023-11-19T12:43:20;37.78;;;5.75;;
33738;SDS011;20063;51.730;11.110;2023-11-19T12:45:49;36.92;;;5.82;;
33738;SDS011;20063;51.730;11.110;2023-11-19T12:48:15;32.38;;;5.97;;
33738;SDS011;20063;51.730;11.110;2023-11-19T12:50:50;27.27;;;5.75;;
33738;SDS011;20063;51.730;11.110;2023-11-19T12:53:21;43.80;;;5.47;;
33738;SDS011;20063;51.730;11.110;2023-11-19T12:55:47;46.50;;;6.10;;
33738;SDS011;20063;51.730;11.110;2023-11-19T12:58:33;38.15;;;5.32;;
33738;SDS011;20063;51.730;11.110;2023-11-19T13:00:59;44.17;;;7.00;;
33738;SDS011;20063;51.730;11.110;2023-11-19T13:03:32;30.13;;;4.85;;
33738;SDS011;20063;51.730;11.110;2023-11-19T13:06:02;37.28;;;5.93;;
33738;SDS011;20063;51.730;11.110;2023-11-19T13:08:29;37.83;;;6.38;;
33738;SDS011;20063;51.730;11.110;2023-11-19T13:11:02;39.33;;;6.35;;
33738;SDS011;20063;51.730;11.110;2023-11-19T13:13:28;35.90;;;6.05;;
33738;SDS011;20063;51.730;11.110;2023-11-19T13:16:01;37.13;;;5.45;;
33738;SDS011;20063;51.730;11.110;2023-11-19T13:18:34;36.28;;;7.07;;
33738;SDS011;20063;51.730;11.110;2023-11-19T13:20:59;27.90;;;5.05;;
33738;SDS011;20063;51.730;11.110;2023-11-19T13:23:25;32.53;;;4.85;;
33738;SDS011;20063;51.730;11.110;2023-11-19T13:25:51;37.72;;;6.15;;
33738;SDS011;20063;51.730;11.110;2023-11-19T13:28:17;23.05;;;4.72;;
33738;SDS011;20063;51.730;11.110;2023-11-19T13:30:42;53.90;;;7.35;;
33738;SDS011;20063;51.730;11.110;2023-11-19T13:33:08;30.17;;;5.07;;
33738;SDS011;20063;51.730;11.110;2023-11-19T13:35:37;32.88;;;5.40;;
33738;SDS011;20063;51.730;11.110;2023-11-19T13:38:05;36.22;;;5.38;;
33738;SDS011;20063;51.730;11.110;2023-11-19T13:40:30;29.98;;;5.38;;
33738;SDS011;20063;51.730;11.110;2023-11-19T13:42:56;26.40;;;4.40;;
33738;SDS011;20063;51.730;11.110;2023-11-19T13:45:21;40.30;;;6.35;;
33738;SDS011;20063;51.730;11.110;2023-11-19T13:47:47;28.38;;;5.40;;
33738;SDS011;20063;51.730;11.110;2023-11-19T13:50:13;34.88;;;5.70;;
33738;SDS011;20063;51.730;11.110;2023-11-19T13:52:42;26.45;;;5.10;;
33738;SDS011;20063;51.730;11.110;2023-11-19T13:55:10;42.95;;;5.72;;
33738;SDS011;20063;51.730;11.110;2023-11-19T13:57:37;35.17;;;5.93;;
33738;SDS011;20063;51.730;11.110;2023-11-19T14:00:04;31.38;;;4.75;;
33738;SDS011;20063;51.730;11.110;2023-11-19T14:02:32;29.90;;;5.65;;
33738;SDS011;20063;51.730;11.110;2023-11-19T14:04:58;26.13;;;4.78;;
33738;SDS011;20063;51.730;11.110;2023-11-19T14:07:23;22.65;;;6.53;;
33738;SDS011;20063;51.730;11.110;2023-11-19T14:09:49;20.40;;;5.10;;
33738;SDS011;20063;51.730;11.110;2023-11-19T14:12:15;32.10;;;5.28;;
33738;SDS011;20063;51.730;11.110;2023-11-19T14:14:42;23.88;;;4.05;;
33738;SDS011;20063;51.730;11.110;2023-11-19T14:17:08;21.00;;;3.60;;
33738;SDS011;20063;51.730;11.110;2023-11-19T14:19:35;20.23;;;4.30;;
33738;SDS011;20063;51.730;11.110;2023-11-19T14:22:01;20.52;;;4.03;;
33738;SDS011;20063;51.730;11.110;2023-11-19T14:24:27;25.13;;;3.88;;
33738;SDS011;20063;51.730;11.110;2023-11-19T14:26:53;16.48;;;3.25;;
33738;SDS011;20063;51.730;11.110;2023-11-19T14:29:18;22.58;;;4.30;;
33738;SDS011;20063;51.730;11.110;2023-11-19T14:31:44;24.33;;;4.57;;
33738;SDS011;20063;51.730;11.110;2023-11-19T14:34:10;27.02;;;4.45;;
33738;SDS011;20063;51.730;11.110;2023-11-19T14:36:35;29.58;;;4.53;;
33738;SDS011;20063;51.730;11.110;2023-11-19T14:39:01;34.70;;;6.25;;
33738;SDS011;20063;51.730;11.110;2023-11-19T14:41:27;26.92;;;4.60;;
33738;SDS011;20063;51.730;11.110;2023-11-19T14:43:52;28.33;;;4.82;;
33738;SDS011;20063;51.730;11.110;2023-11-19T14:46:18;18.23;;;3.60;;
33738;SDS011;20063;51.730;11.110;2023-11-19T14:48:43;25.00;;;3.60;;
33738;SDS011;20063;51.730;11.110;2023-11-19T14:51:09;27.05;;;4.65;;